Time;durP1;ratioP1;P1;durP2;ratioP2;P2;SDS_P1;SDS_P2;PMS_P1;PMS_P2;Temp;Humidity;BMP_temperature;BMP_pressure;BME280_temperature;BME280_humidity;BME280_pressure;Samples;Min_cycle;Max_cycle;Signal;HPM_P1;HPM_P2
2022/06/15 00:00:49;;;;;;;21.10;14.63;;;;;;;8.80;76.94;99391.24;2237223;79;21350;-82
2022/06/15 00:03:49;;;;;;;9.83;6.27;;;;;;;8.78;77.04;99394.22;2237203;79;20912;-81
2022/06/15 00:06:50;;;;;;;7.43;4.43;;;;;;;8.77;77.24;99395.95;2237129;79;20960;-81
2022/06/15 00:09:50;;;;;;;9.53;4.50;;;;;;;8.72;77.12;99400.14;2236937;80;20975;-81
2022/06/15 00:12:51;;;;;;;10.00;4.70;;;;;;;8.68;76.94;99398.30;2237516;79;21063;-80
2022/06/15 00:15:51;;;;;;;13.17;4.40;;;;;;;8.64;77.22;99399.02;2237713;79;20990;-81
2022/06/15 00:18:52;;;;;;;11.90;4.47;;;;;;;8.65;77.58;99395.99;2238119;79;21328;-80
2022/06/15 00:21:52;;;;;;;6.40;4.20;;;;;;;8.62;77.45;99390.28;2238090;79;20911;-80
2022/06/15 00:24:52;;;;;;;7.50;4.03;;;;;;;8.57;77.43;99397.08;2238219;79;20948;-80
2022/06/15 00:27:53;;;;;;;82.67;9.87;;;;;;;8.55;77.59;99398.33;2237206;79;20904;-81
2022/06/15 00:30:53;;;;;;;5.90;4.10;;;;;;;8.56;77.90;99400.09;2237571;79;20920;-80
2022/06/15 00:33:53;;;;;;;56.73;7.27;;;;;;;8.55;77.78;99392.25;2237281;80;20939;-82
2022/06/15 00:36:54;;;;;;;11.27;4.33;;;;;;;8.50;77.83;99392.53;2237561;80;20943;-80
2022/06/15 00:39:54;;;;;;;135.03;12.20;;;;;;;8.50;77.95;99397.73;2237368;79;21303;-81
2022/06/15 00:42:55;;;;;;;13.73;4.40;;;;;;;8.43;77.84;99394.50;2237160;79;21003;-80
2022/06/15 00:45:55;;;;;;;9.00;4.13;;;;;;;8.43;77.90;99395.80;2236480;79;21015;-80
2022/06/15 00:48:56;;;;;;;9.27;3.90;;;;;;;8.41;77.89;99401.38;2237430;79;20968;-80
2022/06/15 00:51:56;;;;;;;7.30;4.20;;;;;;;8.37;77.91;99396.50;2237278;79;20908;-80
2022/06/15 00:54:56;;;;;;;10.40;4.07;;;;;;;8.35;78.03;99399.89;2236943;79;20928;-79
2022/06/15 00:57:57;;;;;;;19.23;4.83;;;;;;;8.31;78.13;99398.47;2237245;80;20952;-81
2022/06/15 01:00:57;;;;;;;6.47;4.30;;;;;;;8.31;78.29;99402.38;2236185;79;20964;-79
2022/06/15 01:03:57;;;;;;;9.17;4.40;;;;;;;8.28;78.44;99394.48;2236593;79;20982;-80
2022/06/15 01:06:58;;;;;;;11.17;5.00;;;;;;;8.23;78.09;99392.16;2235469;79;21011;-80
2022/06/15 01:09:58;;;;;;;6.30;4.80;;;;;;;8.20;78.58;99399.87;2236340;79;20931;-79
2022/06/15 01:12:59;;;;;;;9.07;4.47;;;;;;;8.19;78.58;99395.92;2236647;80;20979;-79
2022/06/15 01:15:59;;;;;;;15.50;4.80;;;;;;;8.16;78.55;99395.41;2236253;79;21319;-80
2022/06/15 01:18:59;;;;;;;15.63;5.50;;;;;;;8.15;78.77;99401.45;2236605;79;20944;-82
2022/06/15 01:22:00;;;;;;;7.57;4.37;;;;;;;8.15;78.79;99405.77;2236883;79;20924;-79
2022/06/15 01:25:00;;;;;;;45.97;7.60;;;;;;;8.16;79.18;99407.12;2236939;79;20924;-79
2022/06/15 01:28:01;;;;;;;57.20;33.27;;;;;;;8.14;78.79;99403.59;2236725;79;21291;-79
2022/06/15 01:31:01;;;;;;;12.17;7.87;;;;;;;8.08;78.48;99404.70;2236504;79;20928;-79
2022/06/15 01:34:01;;;;;;;13.50;5.57;;;;;;;8.05;78.68;99405.91;2236788;79;20976;-80
2022/06/15 01:37:02;;;;;;;8.83;4.80;;;;;;;8.05;78.62;99402.42;2236526;79;21292;-79
2022/06/15 01:40:02;;;;;;;7.13;4.50;;;;;;;8.04;78.75;99405.86;2236452;79;20932;-79
2022/06/15 01:43:03;;;;;;;12.70;4.23;;;;;;;7.98;78.62;99398.76;2236650;79;21006;-80
2022/06/15 01:46:03;;;;;;;10.67;5.13;;;;;;;7.94;78.39;99396.48;2236502;79;20948;-80
2022/06/15 01:49:04;;;;;;;11.20;4.63;;;;;;;7.91;78.28;99400.28;2236686;79;20908;-79
2022/06/15 01:52:04;;;;;;;35.60;5.73;;;;;;;7.89;78.51;99394.58;2236549;79;21346;-79
2022/06/15 01:55:04;;;;;;;30.00;6.03;;;;;;;7.89;78.74;99399.36;2236365;79;20946;-79
2022/06/15 01:58:05;;;;;;;11.97;4.63;;;;;;;7.95;78.89;99399.96;2236392;80;20967;-79
2022/06/15 02:01:05;;;;;;;6.80;4.60;;;;;;;8.08;79.03;99399.50;2236294;79;21287;-79
2022/06/15 02:04:05;;;;;;;10.47;5.23;;;;;;;8.14;78.86;99398.80;2234816;79;21026;-80
2022/06/15 02:07:06;;;;;;;64.10;9.20;;;;;;;8.19;79.31;99402.01;2236617;80;20960;-80
2022/06/15 02:10:06;;;;;;;21.47;6.20;;;;;;;8.27;79.34;99399.22;2236468;79;20924;-78
2022/06/15 02:13:07;;;;;;;10.50;5.73;;;;;;;8.45;79.64;99401.51;2236423;80;20937;-80
2022/06/15 02:16:07;;;;;;;11.47;5.47;;;;;;;8.71;80.06;99406.19;2236612;79;20967;-79
2022/06/15 02:19:08;;;;;;;10.37;5.07;;;;;;;9.16;79.75;99410.45;2236693;79;20916;-79
2022/06/15 02:22:08;;;;;;;12.57;6.17;;;;;;;9.16;79.75;99410.45;2236672;79;21390;-80
2022/06/15 02:25:09;;;;;;;20.40;6.30;;;;;;;9.32;79.28;99407.83;2236396;79;20892;-80
2022/06/15 02:28:11;;;;;;;39.77;7.20;;;;;;;9.47;79.27;99406.03;2236465;79;21323;-77
2022/06/15 02:31:12;;;;;;;14.73;5.90;;;;;;;9.58;79.06;99398.97;2236687;79;20896;-79
2022/06/15 02:34:12;;;;;;;45.73;9.20;;;;;;;9.66;78.96;99395.25;2236379;79;20908;-79
2022/06/15 02:37:13;;;;;;;22.33;11.67;;;;;;;9.68;78.97;99393.98;2236450;79;20924;-79
2022/06/15 02:40:13;;;;;;;14.83;6.47;;;;;;;9.77;79.10;99399.41;2236493;79;20946;-79
2022/06/15 02:43:14;;;;;;;24.80;7.10;;;;;;;9.92;79.00;99404.98;2236238;79;21370;-79
2022/06/15 02:46:14;;;;;;;14.83;6.03;;;;;;;10.00;78.89;99400.83;2236673;79;20983;-79
2022/06/15 02:49:14;;;;;;;10.63;5.73;;;;;;;10.09;78.91;99403.64;2236863;79;20992;-79
2022/06/15 02:52:15;;;;;;;265.70;24.40;;;;;;;10.11;79.04;99412.81;2236606;79;21342;-80
2022/06/15 02:55:15;;;;;;;21.60;6.40;;;;;;;10.17;79.00;99406.42;2236942;80;20956;-79
2022/06/15 02:58:16;;;;;;;15.33;5.93;;;;;;;10.21;78.94;99401.34;2236458;79;20968;-80
2022/06/15 03:01:16;;;;;;;11.97;5.27;;;;;;;10.26;79.09;99408.39;2236931;79;20927;-80
2022/06/15 03:04:16;;;;;;;21.80;6.00;;;;;;;10.35;79.02;99405.98;2236550;79;21389;-80
2022/06/15 03:07:19;;;;;;;27.67;6.47;;;;;;;10.41;79.10;99399.20;2236724;79;20947;-80
2022/06/15 03:10:17;;;;;;;18.10;5.27;;;;;;;10.51;78.88;99406.80;2237228;79;20943;-81
2022/06/15 03:13:18;;;;;;;209.43;15.50;;;;;;;10.64;78.85;99404.02;2237280;79;20979;-80
2022/06/15 03:16:18;;;;;;;20.17;5.60;;;;;;;10.73;78.36;99411.61;2237126;79;21032;-79
2022/06/15 03:19:18;;;;;;;14.53;5.80;;;;;;;10.84;78.46;99407.48;2238362;79;20990;-80
2022/06/15 03:22:19;;;;;;;190.67;16.03;;;;;;;10.86;78.47;99416.64;2237628;79;20900;-80
2022/06/15 03:25:19;;;;;;;20.23;6.93;;;;;;;10.88;78.39;99417.98;2237823;79;20982;-81
2022/06/15 03:28:20;;;;;;;12.20;5.83;;;;;;;10.92;78.67;99419.38;2238180;79;20970;-80
2022/06/15 03:31:20;;;;;;;97.73;59.63;;;;;;;10.97;78.65;99424.69;2237860;79;21272;-79
2022/06/15 03:34:20;;;;;;;20.27;10.13;;;;;;;10.99;78.77;99416.45;2237046;80;20947;-80
2022/06/15 03:37:21;;;;;;;33.53;7.57;;;;;;;11.04;78.90;99422.66;2236774;78;20904;-80
2022/06/15 03:40:21;;;;;;;31.67;7.20;;;;;;;11.10;78.63;99425.38;2236960;79;21343;-78
2022/06/15 03:43:22;;;;;;;27.10;6.43;;;;;;;11.15;78.57;99420.70;2235957;79;21038;-80
2022/06/15 03:46:23;;;;;;;41.37;7.07;;;;;;;11.21;78.62;99426.46;2236103;80;20987;-80
2022/06/15 03:49:22;;;;;;;21.87;5.80;;;;;;;11.30;78.50;99425.78;2236045;79;20916;-79
2022/06/15 03:52:23;;;;;;;13.60;5.07;;;;;;;11.40;78.70;99427.28;2236976;79;20923;-79
2022/06/15 03:55:23;;;;;;;13.90;6.07;;;;;;;11.47;78.94;99421.73;2237226;79;20962;-79
2022/06/15 03:58:24;;;;;;;13.77;6.13;;;;;;;11.52;78.04;99425.73;2235858;79;21013;-79
2022/06/15 04:01:24;;;;;;;15.53;7.23;;;;;;;11.60;78.33;99427.63;2236528;79;20938;-79
2022/06/15 04:04:24;;;;;;;18.20;8.10;;;;;;;11.67;77.61;99426.88;2236168;79;21406;-79
2022/06/15 04:10:44;;;;;;;17.83;8.37;;;;;;;11.83;76.31;99424.54;2237321;79;21003;-79
2022/06/15 04:13:44;;;;;;;15.57;7.80;;;;;;;11.94;75.43;99423.84;2238045;79;20935;-79
2022/06/15 04:16:46;;;;;;;12.97;7.70;;;;;;;12.05;75.15;99425.32;2237252;79;21029;-80
2022/06/15 04:20:31;;;;;;;14.13;7.57;;;;;;;12.13;75.07;99430.24;2236656;79;20952;-79
2022/06/15 04:22:46;;;;;;;11.97;7.10;;;;;;;12.19;74.47;99433.41;2237598;79;21003;-78
2022/06/15 04:25:47;;;;;;;28.17;7.07;;;;;;;12.25;73.83;99440.05;2236577;79;20955;-79
2022/06/15 04:28:46;;;;;;;33.80;8.63;;;;;;;12.33;75.16;99433.18;2236837;79;20955;-80
2022/06/15 04:31:47;;;;;;;32.25;9.40;;;;;;;12.40;75.14;99434.59;2236108;79;20961;-78
2022/06/15 04:34:47;;;;;;;38.20;8.63;;;;;;;12.41;73.81;99436.36;2235974;79;20967;-78
2022/06/15 04:37:48;;;;;;;83.37;10.77;;;;;;;12.42;73.59;99434.62;2234629;79;20987;-79
2022/06/15 04:40:48;;;;;;;222.00;20.55;;;;;;;12.51;73.36;99429.94;2236864;79;20966;-79
2022/06/15 04:43:48;;;;;;;11.70;6.90;;;;;;;12.63;73.44;99429.66;2238016;79;20990;-79
2022/06/15 04:46:49;;;;;;;16.25;7.22;;;;;;;12.73;72.15;99428.92;2236046;79;21026;-79
2022/06/15 04:49:49;;;;;;;11.05;5.90;;;;;;;12.81;71.82;99432.06;2234085;78;20959;-78
2022/06/15 04:52:50;;;;;;;13.62;5.65;;;;;;;12.93;71.19;99427.84;2235885;80;21391;-79
2022/06/15 04:55:50;;;;;;;25.82;7.08;;;;;;;13.11;70.97;99421.09;2235955;80;20968;-80
2022/06/15 04:58:50;;;;;;;14.18;6.08;;;;;;;13.39;70.60;99422.73;2234989;79;21327;-80
2022/06/15 05:01:51;;;;;;;7.33;5.55;;;;;;;13.67;69.71;99424.29;2234668;79;20991;-79
2022/06/15 05:04:53;;;;;;;13.58;5.40;;;;;;;13.88;69.07;99423.62;2231870;80;21018;-80
2022/06/15 05:07:53;;;;;;;16.37;5.03;;;;;;;14.08;68.65;99422.45;2233029;79;20991;-77
2022/06/15 05:10:52;;;;;;;10.20;5.72;;;;;;;14.22;67.57;99424.30;2231649;80;21396;-77
2022/06/15 05:13:53;;;;;;;20.92;5.85;;;;;;;14.38;67.52;99429.64;2231424;79;20923;-78
2022/06/15 05:16:53;;;;;;;11.50;4.70;;;;;;;14.59;67.33;99426.73;2231222;78;21074;-78
2022/06/15 05:19:53;;;;;;;12.10;5.90;;;;;;;14.81;67.14;99425.55;2231316;79;21025;-77
2022/06/15 05:22:54;;;;;;;24.75;5.53;;;;;;;14.93;66.58;99426.47;2232169;79;21065;-78
2022/06/15 05:25:54;;;;;;;168.62;14.75;;;;;;;15.04;66.77;99426.50;2233158;79;20956;-78
2022/06/15 05:28:54;;;;;;;24.82;5.40;;;;;;;15.29;66.37;99431.39;2233600;79;20964;-78
2022/06/15 05:31:56;;;;;;;8.50;4.50;;;;;;;15.48;65.64;99433.62;2232678;79;20963;-78
2022/06/15 05:34:55;;;;;;;15.55;5.25;;;;;;;15.53;65.70;99429.23;2231939;79;21298;-78
2022/06/15 05:37:56;;;;;;;12.60;4.28;;;;;;;15.69;65.24;99435.46;2231290;79;21002;-78
2022/06/15 05:40:56;;;;;;;10.20;4.30;;;;;;;16.03;64.94;99425.36;2230822;79;20937;-79
2022/06/15 05:43:59;;;;;;;118.87;9.95;;;;;;;16.16;63.65;99420.96;2230957;79;21588;-78
2022/06/15 05:46:57;;;;;;;13.25;4.90;;;;;;;16.23;63.44;99432.80;2232512;79;21073;-78
2022/06/15 05:49:57;;;;;;;9.90;4.15;;;;;;;16.26;62.84;99426.66;2231610;79;20928;-82
2022/06/15 05:52:58;;;;;;;9.18;3.58;;;;;;;16.35;62.95;99424.44;2235815;79;20920;-82
2022/06/15 05:55:58;;;;;;;8.05;3.17;;;;;;;16.47;61.68;99424.41;2234624;79;20966;-81
2022/06/15 05:58:59;;;;;;;8.80;3.47;;;;;;;16.52;61.23;99425.30;2233871;79;20970;-82
2022/06/15 06:01:59;;;;;;;7.58;2.92;;;;;;;16.65;60.20;99423.51;2234686;79;21358;-81
2022/06/15 06:04:59;;;;;;;9.85;3.10;;;;;;;16.70;59.06;99425.72;2233895;79;21044;-80
2022/06/15 06:08:00;;;;;;;7.33;2.83;;;;;;;16.74;58.21;99428.34;2215788;79;21012;-81
2022/06/15 06:11:00;;;;;;;7.83;2.50;;;;;;;16.86;56.12;99424.33;2206706;79;21355;-81
2022/06/15 06:14:01;;;;;;;4.70;2.20;;;;;;;16.94;55.01;99428.25;2206578;79;21000;-80
2022/06/15 06:17:01;;;;;;;6.05;2.30;;;;;;;17.02;55.94;99424.27;2205864;81;21000;-81
2022/06/15 06:20:02;;;;;;;6.65;2.35;;;;;;;17.28;54.82;99432.03;2206511;81;21011;-80
2022/06/15 06:23:02;;;;;;;10.45;2.50;;;;;;;17.42;53.54;99432.86;2205811;79;21422;-81
2022/06/15 06:26:02;;;;;;;6.53;2.85;;;;;;;17.56;53.95;99426.17;2207281;79;20949;-80
2022/06/15 06:29:03;;;;;;;5.58;2.92;;;;;;;17.72;54.85;99426.08;2207525;79;20944;-81
2022/06/15 06:32:03;;;;;;;6.25;2.15;;;;;;;17.96;54.33;99425.45;2206723;79;21035;-79
2022/06/15 06:35:04;;;;;;;8.18;2.25;;;;;;;18.11;52.65;99425.30;2205611;79;21023;-82
2022/06/15 06:38:04;;;;;;;13.85;2.35;;;;;;;18.22;50.65;99436.68;2206490;81;20929;-80
2022/06/15 06:41:06;;;;;;;8.05;2.10;;;;;;;18.31;50.41;99434.39;2193150;81;21016;-80
2022/06/15 06:44:07;;;;;;;6.20;2.00;;;;;;;18.38;50.34;99439.61;2206162;79;21038;-80
2022/06/15 06:47:08;;;;;;;5.10;2.20;;;;;;;18.52;49.45;99438.58;2205405;79;21031;-80
2022/06/15 06:50:07;;;;;;;9.53;2.50;;;;;;;18.65;49.96;99428.33;2205488;81;21015;-81
2022/06/15 06:53:08;;;;;;;5.95;2.05;;;;;;;18.79;48.30;99426.41;2205647;79;21447;-81
2022/06/15 06:56:08;;;;;;;5.30;1.90;;;;;;;18.76;48.50;99429.08;2206427;79;20968;-80
2022/06/15 06:59:09;;;;;;;7.08;2.42;;;;;;;18.78;47.63;99434.78;2205811;79;20983;-82
2022/06/15 07:02:09;;;;;;;4.33;1.92;;;;;;;18.85;49.01;99427.65;2205873;79;21015;-80
2022/06/15 07:05:10;;;;;;;6.75;2.00;;;;;;;19.20;49.01;99427.22;2205769;79;20983;-81
2022/06/15 07:08:10;;;;;;;7.08;2.30;;;;;;;19.46;47.59;99424.66;2205833;79;21011;-78
2022/06/15 07:11:12;;;;;;;43.63;4.85;;;;;;;19.68;48.74;99430.95;2190744;81;21447;-79
2022/06/15 07:14:13;;;;;;;8.08;2.52;;;;;;;19.78;46.43;99429.48;2203032;79;21281;-79
2022/06/15 07:17:13;;;;;;;6.85;2.10;;;;;;;19.87;46.64;99428.01;2203846;81;21035;-78
2022/06/15 07:20:13;;;;;;;4.78;1.92;;;;;;;20.03;46.39;99425.11;2204472;79;21996;-80
2022/06/15 07:23:14;;;;;;;5.25;2.30;;;;;;;20.03;46.09;99424.23;2205111;79;21023;-80
2022/06/15 07:26:14;;;;;;;8.43;2.37;;;;;;;19.89;45.83;99427.53;2206221;79;21048;-80
2022/06/15 07:29:15;;;;;;;5.83;2.10;;;;;;;19.83;46.84;99423.66;2206989;79;21032;-79
2022/06/15 07:32:15;;;;;;;3.58;2.22;;;;;;;20.04;45.42;99431.28;2206599;79;20986;-78
2022/06/15 07:35:15;;;;;;;5.28;2.35;;;;;;;20.15;44.63;99422.70;2205820;79;21031;-80
2022/06/15 07:38:19;;;;;;;4.75;2.30;;;;;;;20.26;44.42;99433.11;2204894;79;21487;-79
2022/06/15 07:41:19;;;;;;;9.18;2.60;;;;;;;20.57;45.06;99428.14;2206571;79;20972;-80
2022/06/15 07:44:19;;;;;;;4.75;1.98;;;;;;;21.29;44.52;99424.47;2207848;79;20995;-79
2022/06/15 07:50:39;;;;;;;5.95;2.33;;;;;;;22.01;42.30;99418.80;2206373;79;21262;-79
2022/06/15 07:53:39;;;;;;;5.65;2.10;;;;;;;21.56;41.18;99420.77;2205530;81;20944;-79
2022/06/15 07:56:40;;;;;;;9.88;2.60;;;;;;;21.09;41.21;99424.00;2206121;79;21442;-78
2022/06/15 07:59:40;;;;;;;4.40;2.08;;;;;;;20.87;41.88;99423.58;2206367;79;20960;-78
2022/06/15 08:02:40;;;;;;;4.17;1.92;;;;;;;20.78;42.64;99425.06;2206790;79;20984;-79
2022/06/15 08:05:41;;;;;;;6.90;1.90;;;;;;;20.54;41.80;99430.85;2206980;79;21335;-78
2022/06/15 08:08:41;;;;;;;4.33;1.92;;;;;;;20.35;41.66;99435.59;2224649;80;21030;-79
2022/06/15 08:12:11;;;;;;;40.05;4.35;;;;;;;20.17;42.77;99434.14;2232879;80;20959;-79
2022/06/15 08:14:45;;;;;;;5.37;2.10;;;;;;;20.17;42.79;99437.25;2232614;79;21014;-77
2022/06/15 08:17:46;;;;;;;5.90;2.20;;;;;;;20.53;41.71;99433.08;2232001;79;21082;-78
2022/06/15 08:20:46;;;;;;;4.70;2.17;;;;;;;20.44;42.48;99434.58;2231785;80;20959;-79
2022/06/15 08:23:47;;;;;;;5.85;1.90;;;;;;;20.73;41.91;99431.37;2234353;79;21037;-79
2022/06/15 08:26:47;;;;;;;2.58;1.60;;;;;;;20.69;42.11;99434.53;2233417;79;20971;-78
2022/06/15 08:29:48;;;;;;;6.00;2.00;;;;;;;20.62;42.43;99439.53;2233086;79;20900;-80
2022/06/15 08:32:49;;;;;;;3.58;1.95;;;;;;;20.66;41.87;99433.27;2233339;79;20967;-79
2022/06/15 08:35:49;;;;;;;5.35;2.20;;;;;;;20.65;42.33;99436.37;2232863;79;21003;-78
2022/06/15 08:38:49;;;;;;;4.50;2.02;;;;;;;20.58;42.24;99441.38;2232463;79;21392;-78
2022/06/15 08:41:50;;;;;;;10.05;2.20;;;;;;;20.33;41.83;99436.07;2233564;80;21050;-79
2022/06/15 08:44:50;;;;;;;5.10;1.72;;;;;;;20.15;41.94;99439.92;2233530;79;21046;-79
2022/06/15 08:47:51;;;;;;;3.05;1.77;;;;;;;19.96;41.76;99436.72;2232169;79;21026;-78
2022/06/15 08:50:51;;;;;;;3.30;2.00;;;;;;;19.86;41.86;99438.18;2232751;79;20955;-78
2022/06/15 08:53:51;;;;;;;6.00;1.90;;;;;;;19.84;42.56;99439.98;2231181;80;21168;-78
2022/06/15 08:56:52;;;;;;;8.25;2.10;;;;;;;19.83;42.78;99436.91;2232054;79;20959;-79
2022/06/15 08:59:52;;;;;;;8.08;1.98;;;;;;;19.86;43.50;99440.83;2232654;79;20975;-78
2022/06/15 09:02:53;;;;;;;2.52;1.95;;;;;;;20.55;43.62;99436.58;2232932;79;21582;-77
2022/06/15 09:05:53;;;;;;;3.92;1.72;;;;;;;21.63;40.55;99433.87;2233524;79;21015;-78
2022/06/15 09:08:53;;;;;;;2.62;1.60;;;;;;;21.86;38.67;99436.46;2233293;79;21022;-78
2022/06/15 09:12:49;;;;;;;4.25;1.70;;;;;;;21.60;38.42;99434.39;2231667;79;20987;-78
2022/06/15 09:14:54;;;;;;;5.10;1.80;;;;;;;21.49;38.40;99437.30;2232339;79;22013;-78
2022/06/15 09:17:55;;;;;;;11.30;7.20;;;;;;;21.31;38.51;99443.03;2230855;79;21592;-78
2022/06/15 09:20:55;;;;;;;7.10;1.90;;;;;;;21.57;39.42;99431.36;2230944;79;20986;-77
2022/06/15 09:23:56;;;;;;;6.42;1.72;;;;;;;21.79;38.62;99434.86;2231002;79;21040;-76
2022/06/15 09:26:56;;;;;;;3.60;1.60;;;;;;;21.53;37.12;99431.01;2231686;78;21393;-77
2022/06/15 09:29:56;;;;;;;2.92;1.40;;;;;;;21.41;37.74;99427.30;2230323;79;21018;-77
2022/06/15 09:32:57;;;;;;;4.75;1.90;;;;;;;21.49;36.92;99433.31;2230381;79;20998;-78
2022/06/15 09:36:02;;;;;;;4.75;1.95;;;;;;;21.51;37.82;99420.00;2231744;80;21003;-78
2022/06/15 09:38:58;;;;;;;7.33;2.02;;;;;;;21.58;38.17;99429.57;2232632;79;21274;-78
2022/06/15 09:41:58;;;;;;;3.52;1.65;;;;;;;21.63;38.16;99429.87;2234199;79;20932;-77
2022/06/15 09:44:59;;;;;;;2.85;1.55;;;;;;;21.90;38.33;99430.16;2234038;79;21035;-79
2022/06/15 09:47:59;;;;;;;108.27;8.23;;;;;;;22.20;37.86;99429.41;2234182;79;21408;-79
2022/06/15 09:50:59;;;;;;;3.33;1.72;;;;;;;22.39;36.73;99432.91;2234554;79;20939;-80
2022/06/15 09:54:00;;;;;;;129.72;10.30;;;;;;;22.67;36.40;99427.29;2234812;79;20984;-78
2022/06/15 09:57:00;;;;;;;3.20;2.08;;;;;;;22.85;36.35;99421.48;2233239;80;20928;-79
2022/06/15 10:00:02;;;;;;;5.60;2.00;;;;;;;23.09;35.97;99415.02;2231831;80;21429;-79
2022/06/15 10:03:02;;;;;;;37.13;3.85;;;;;;;23.31;36.00;99422.77;2232442;80;20990;-79
2022/06/15 10:06:01;;;;;;;3.87;1.82;;;;;;;23.40;34.15;99425.61;2231952;80;21414;-79
2022/06/15 10:09:02;;;;;;;3.10;1.65;;;;;;;23.14;35.38;99415.75;2215243;79;20995;-78
2022/06/15 10:15:22;;;;;;;6.25;1.57;;;;;;;23.16;36.19;99415.25;2204047;79;21004;-78
2022/06/15 10:18:22;;;;;;;4.50;1.80;;;;;;;23.06;35.42;99431.96;2204360;79;21059;-78
2022/06/15 10:21:23;;;;;;;6.15;1.98;;;;;;;22.76;35.62;99420.84;2204789;79;20984;-78
2022/06/15 10:24:23;;;;;;;2.87;1.92;;;;;;;22.28;36.60;99428.34;2205568;81;21000;-78
2022/06/15 10:27:24;;;;;;;4.35;2.27;;;;;;;22.04;36.69;99431.17;2204979;81;20984;-80
2022/06/15 10:30:24;;;;;;;2.30;1.75;;;;;;;21.86;37.44;99426.70;2205594;79;20984;-77
2022/06/15 10:33:24;;;;;;;4.20;1.95;;;;;;;22.06;38.01;99428.02;2204720;79;22041;-79
2022/06/15 10:36:25;;;;;;;8.88;2.87;;;;;;;22.42;37.09;99419.53;2205741;79;21062;-79
2022/06/15 10:39:25;;;;;;;24.95;4.58;;;;;;;22.73;36.86;99407.62;2206250;79;20988;-78
2022/06/15 10:42:26;;;;;;;8.98;2.08;;;;;;;22.79;37.28;99397.67;2207691;79;20991;-79
2022/06/15 10:45:27;;;;;;;10.00;1.82;;;;;;;22.27;36.48;99412.84;2203758;79;21403;-80
2022/06/15 10:48:26;;;;;;;19.40;3.22;;;;;;;22.44;36.76;99409.27;2202987;79;21058;-74
2022/06/15 10:51:27;;;;;;;2.70;1.90;;;;;;;22.49;37.29;99398.50;2202801;79;20956;-78
2022/06/15 10:54:27;;;;;;;2.90;1.82;;;;;;;23.13;36.96;99394.91;2203839;79;20972;-78
2022/06/15 11:04:06;;;;;;;12.85;3.60;;;;;;;23.99;35.22;99389.55;2205076;81;21050;-80
2022/06/15 11:07:06;;;;;;;4.92;2.08;;;;;;;23.90;35.77;99400.06;2206231;79;20960;-79
2022/06/15 11:10:07;;;;;;;4.53;1.65;;;;;;;23.69;35.21;99394.98;2228624;79;21303;-79
2022/06/15 11:13:07;;;;;;;3.22;1.57;;;;;;;23.74;35.45;99395.70;2233760;79;20943;-78
2022/06/15 11:19:26;;;;;;;26.62;4.42;;;;;;;23.54;35.13;99390.58;2233165;80;20939;-77
2022/06/15 11:22:27;;;;;;;3.10;1.77;;;;;;;23.14;35.78;99389.13;2234367;79;20991;-79
2022/06/15 11:25:27;;;;;;;5.00;1.70;;;;;;;22.66;36.33;99383.43;2233470;79;20990;-79
2022/06/15 11:28:28;;;;;;;4.60;1.87;;;;;;;22.48;36.56;99388.78;2232823;79;20967;-78
2022/06/15 11:31:28;;;;;;;6.47;1.77;;;;;;;22.61;36.86;99376.03;2232271;79;20971;-78
2022/06/15 11:34:28;;;;;;;26.42;2.72;;;;;;;22.82;36.05;99374.11;2231590;79;21014;-79
2022/06/15 11:37:29;;;;;;;3.75;1.82;;;;;;;23.20;35.75;99378.28;2232383;79;20991;-78
2022/06/15 11:40:30;;;;;;;4.92;1.60;;;;;;;23.81;35.01;99375.92;2232620;79;21403;-79
2022/06/15 11:43:30;;;;;;;3.20;1.47;;;;;;;23.75;34.48;99378.78;2233403;79;21022;-80
2022/06/15 11:46:30;;;;;;;4.35;1.90;;;;;;;23.97;34.44;99381.60;2234666;79;20932;-79
2022/06/15 11:49:30;;;;;;;2.75;1.70;;;;;;;23.85;33.56;99380.69;2232876;79;21064;-79
2022/06/15 11:52:31;;;;;;;4.87;1.95;;;;;;;23.42;34.54;99379.39;2233675;79;21372;-80
2022/06/15 11:55:31;;;;;;;3.00;1.60;;;;;;;23.29;33.97;99382.45;2234031;79;21357;-78
2022/06/15 11:58:32;;;;;;;3.08;1.70;;;;;;;23.37;34.24;99371.09;2233667;79;20923;-82
2022/06/15 12:01:32;;;;;;;5.90;1.85;;;;;;;23.43;34.34;99369.61;2233835;79;20964;-80
2022/06/15 12:04:32;;;;;;;2.33;1.57;;;;;;;23.92;34.22;99369.35;2232981;79;21261;-78
2022/06/15 12:07:33;;;;;;;4.78;1.60;;;;;;;24.51;33.05;99372.64;2231982;79;20963;-77
2022/06/15 12:10:33;;;;;;;2.58;1.50;;;;;;;24.73;32.97;99374.93;2202852;79;21000;-78
2022/06/15 12:13:34;;;;;;;3.35;1.70;;;;;;;24.85;32.80;99367.39;2202239;81;20998;-78
2022/06/15 12:16:35;;;;;;;61.08;6.67;;;;;;;24.76;32.74;99368.14;2203506;79;20928;-77
2022/06/15 12:19:34;;;;;;;11.22;2.50;;;;;;;24.46;33.30;99363.94;2202085;79;21063;-77
2022/06/15 12:22:35;;;;;;;2.90;1.55;;;;;;;24.08;34.32;99363.44;2203819;81;21268;-77
2022/06/15 12:25:44;;;;;;;2.17;1.60;;;;;;;24.20;33.87;99365.27;2202948;81;21320;-78
2022/06/15 12:28:44;;;;;;;2.47;1.47;;;;;;;24.38;33.60;99365.55;2203773;79;20952;-77
2022/06/15 12:31:45;;;;;;;3.27;1.60;;;;;;;24.50;33.44;99363.36;2204208;80;20976;-76
2022/06/15 12:34:45;;;;;;;2.37;1.60;;;;;;;24.52;33.41;99363.72;2203726;79;20960;-77
2022/06/15 12:37:46;;;;;;;2.00;1.57;;;;;;;24.27;32.71;99368.16;2204176;79;20980;-77
2022/06/15 12:40:46;;;;;;;2.42;2.02;;;;;;;23.53;33.26;99368.84;2204052;79;20979;-77
2022/06/15 12:43:46;;;;;;;2.77;1.82;;;;;;;23.07;34.45;99368.47;2204447;79;21441;-77
2022/06/15 12:46:47;;;;;;;2.80;1.75;;;;;;;22.94;35.11;99364.44;2203695;79;20956;-77
2022/06/15 12:49:47;;;;;;;2.87;1.50;;;;;;;23.31;34.34;99354.84;2203607;79;21049;-77
2022/06/15 12:52:48;;;;;;;2.33;1.60;;;;;;;23.87;34.33;99359.30;2203763;79;21466;-77
2022/06/15 12:55:48;;;;;;;4.87;1.70;;;;;;;24.49;33.62;99357.62;2204006;79;20976;-77
2022/06/15 12:58:48;;;;;;;6.60;1.65;;;;;;;24.81;33.00;99355.95;2204514;79;20948;-78
2022/06/15 13:01:49;;;;;;;2.62;1.65;;;;;;;24.57;31.68;99356.88;2205836;79;20989;-78
2022/06/15 13:04:49;;;;;;;1.82;1.57;;;;;;;23.81;33.05;99352.39;2204569;79;20991;-78
2022/06/15 13:07:50;;;;;;;2.25;1.25;;;;;;;24.10;32.91;99358.92;2206050;79;21243;-77
2022/06/15 13:10:50;;;;;;;2.77;1.50;;;;;;;24.45;33.40;99359.52;2232249;79;20976;-77
2022/06/15 13:13:50;;;;;;;3.30;1.40;;;;;;;24.93;32.56;99349.27;2233376;79;21322;-78
2022/06/15 13:16:51;;;;;;;2.85;2.00;;;;;;;25.03;31.86;99353.36;2234542;79;20935;-77
2022/06/15 13:19:51;;;;;;;2.02;1.50;;;;;;;25.06;31.85;99345.23;2232477;79;21030;-78
2022/06/15 13:22:52;;;;;;;3.90;1.60;;;;;;;24.90;31.51;99342.72;2235397;79;21343;-79
2022/06/15 13:25:52;;;;;;;3.20;1.47;;;;;;;24.76;32.29;99342.78;2232555;79;21371;-79
2022/06/15 13:28:52;;;;;;;3.98;1.50;;;;;;;24.82;32.25;99334.12;2233702;79;20983;-78
2022/06/15 13:31:53;;;;;;;2.22;1.40;;;;;;;24.62;32.21;99336.22;2232745;79;20955;-79
2022/06/15 13:34:53;;;;;;;2.92;1.60;;;;;;;24.91;31.82;99335.11;2232742;79;20995;-79
2022/06/15 13:37:54;;;;;;;2.33;1.40;;;;;;;25.02;31.25;99335.59;2232742;79;20990;-79
2022/06/15 13:40:54;;;;;;;11.93;2.35;;;;;;;24.62;31.62;99339.76;2233044;79;20951;-78
2022/06/15 13:43:56;;;;;;;2.87;1.47;;;;;;;24.43;32.41;99334.70;2232914;80;20979;-78
2022/06/15 13:46:55;;;;;;;2.50;1.60;;;;;;;23.94;32.18;99344.84;2234948;79;20927;-77
2022/06/15 13:49:55;;;;;;;2.60;1.60;;;;;;;23.59;33.15;99339.37;2235288;80;21424;-79
2022/06/15 13:52:56;;;;;;;8.05;2.35;;;;;;;23.63;33.73;99331.69;2235611;79;20908;-79
2022/06/15 13:55:56;;;;;;;4.60;1.72;;;;;;;23.81;33.59;99333.73;2235138;79;20955;-80
2022/06/15 13:58:59;;;;;;;3.72;1.30;;;;;;;23.67;33.22;99328.86;2235552;80;21018;-81
2022/06/15 14:02:00;;;;;;;1.60;1.40;;;;;;;23.66;33.46;99331.12;2235379;80;21022;-82
2022/06/15 14:05:00;;;;;;;8.83;4.95;;;;;;;23.87;33.60;99329.52;2235481;79;21002;-80
2022/06/15 14:08:01;;;;;;;1.90;1.62;;;;;;;24.29;33.65;99316.98;2234233;79;21406;-80
2022/06/15 14:11:01;;;;;;;2.98;1.70;;;;;;;24.43;33.04;99316.02;2233895;79;20991;-79
2022/06/15 14:14:01;;;;;;;4.15;1.60;;;;;;;24.62;33.21;99324.20;2233715;79;21015;-78
2022/06/15 14:17:02;;;;;;;4.05;2.10;;;;;;;24.71;32.73;99321.19;2234070;79;21375;-81
2022/06/15 14:20:02;;;;;;;2.22;1.65;;;;;;;24.35;32.89;99324.77;2234407;79;21019;-77
2022/06/15 14:23:02;;;;;;;4.17;2.00;;;;;;;23.83;33.41;99321.22;2235908;79;20952;-81
2022/06/15 14:26:03;;;;;;;2.67;1.40;;;;;;;23.63;34.14;99321.89;2236500;79;20955;-79